TAF KONT
KONT 270521Z 2706/2812 VRB04KT P6SM SKC FM272100 27007KT P6SM SCT250 FM280200 VRB04KT P6SM SCT250=
METAR KONT
KONT 261953Z 27008KT 10SM BKN250 24/M18 A3010 RMK AO2 SLP184 T02391183 ?
KONT 261853Z 29004KT 10SM FEW250 22/M14 A3014 RMK AO2 SLP198 T02171144 ?
KONT 261753Z 26007KT 10SM FEW250 19/M13 A3017 RMK AO2 SLP208 T01891133 10189 20044 58004 ?
KONT 261653Z 29005KT 10SM FEW250 16/M13 A3018 RMK AO2 SLP211 T01611133
KONT 261553Z 09003KT 10SM FEW250 12/M11 A3018 RMK AO2 SLP216 T01171111 ?
WC KONT
WS KONT
WV KONT